createdAt,value
2017-12-23T00:02:07.900Z,82.40
2017-12-23T00:04:36.038Z,82.50
2017-12-23T00:07:04.209Z,82.30
2017-12-23T00:09:33.087Z,82.30
2017-12-23T00:12:01.199Z,82.30
2017-12-23T00:14:30.119Z,82.30
2017-12-23T00:16:58.318Z,82.90
2017-12-23T00:19:26.483Z,82.40
2017-12-23T00:21:55.503Z,82.40
2017-12-23T00:24:23.648Z,82.40
2017-12-23T00:26:51.826Z,82.50
2017-12-23T00:29:21.291Z,82.80
2017-12-23T00:31:49.402Z,82.80
2017-12-23T00:34:29.483Z,83.00
2017-12-23T00:36:57.598Z,83.00
2017-12-23T00:39:26.523Z,82.90
2017-12-23T00:41:54.696Z,82.90
2017-12-23T00:44:22.872Z,82.90
2017-12-23T00:46:51.049Z,82.90
2017-12-23T00:49:19.139Z,83.10
2017-12-23T00:51:48.121Z,83.20
2017-12-23T00:54:17.012Z,83.20
2017-12-23T00:56:45.179Z,83.20
2017-12-23T00:59:13.283Z,83.20
2017-12-23T01:01:41.420Z,83.20
2017-12-23T01:04:09.562Z,83.20
2017-12-23T01:06:39.160Z,83.10
2017-12-23T01:09:08.059Z,83.20
2017-12-23T01:11:36.983Z,83.20
2017-12-23T01:14:05.874Z,83.00
2017-12-23T01:16:34.050Z,83.10
2017-12-23T01:19:02.928Z,82.90
2017-12-23T01:21:31.118Z,82.90
2017-12-23T01:23:59.225Z,82.90
2017-12-23T01:26:27.361Z,82.70
2017-12-23T01:28:55.479Z,82.70
2017-12-23T01:31:23.707Z,82.80
2017-12-23T01:33:52.616Z,82.80
2017-12-23T01:36:20.725Z,82.80
2017-12-23T01:38:48.855Z,82.60
2017-12-23T01:41:17.021Z,82.00
2017-12-23T01:43:45.118Z,82.20
2017-12-23T01:46:13.251Z,82.40
2017-12-23T01:48:41.391Z,82.20
2017-12-23T01:51:09.610Z,82.30
2017-12-23T01:53:37.711Z,82.40
2017-12-23T01:56:05.959Z,82.20
2017-12-23T01:58:34.128Z,82.50
2017-12-23T02:01:03.023Z,82.80
2017-12-23T02:03:31.167Z,82.80
2017-12-23T02:06:00.058Z,82.90
2017-12-23T02:08:28.973Z,82.70
2017-12-23T02:10:57.851Z,82.70
2017-12-23T02:13:26.005Z,82.70
2017-12-23T02:15:54.924Z,82.70
2017-12-23T02:18:23.818Z,82.80
2017-12-23T02:20:51.991Z,82.80
2017-12-23T02:23:20.878Z,82.80
2017-12-23T02:25:49.000Z,82.80
2017-12-23T02:28:17.225Z,82.60
2017-12-23T02:30:46.125Z,82.90
2017-12-23T02:33:14.290Z,82.80
2017-12-23T02:35:43.180Z,82.60
2017-12-23T02:38:11.291Z,82.60
2017-12-23T02:40:39.499Z,82.80
2017-12-23T02:43:08.416Z,82.80
2017-12-23T02:45:37.306Z,82.80
2017-12-23T02:48:05.480Z,82.80
2017-12-23T02:50:33.651Z,82.80
2017-12-23T02:53:02.542Z,82.80
2017-12-23T02:55:30.716Z,82.80
2017-12-23T02:57:59.606Z,82.80
2017-12-23T03:00:27.722Z,82.80
2017-12-23T03:02:55.952Z,82.80
2017-12-23T03:07:59.319Z,82.80
2017-12-23T03:10:27.450Z,82.90
2017-12-23T03:12:55.606Z,82.90
2017-12-23T03:15:24.599Z,82.90
2017-12-23T03:17:53.488Z,82.90
2017-12-23T03:20:22.368Z,83.00
2017-12-23T03:22:50.493Z,83.00
2017-12-23T03:25:18.632Z,83.10
2017-12-23T03:27:46.799Z,82.90
2017-12-23T03:30:15.792Z,83.00
2017-12-23T03:32:43.963Z,83.00
2017-12-23T03:35:12.849Z,83.00
2017-12-23T03:37:41.747Z,83.00
2017-12-23T03:40:09.858Z,83.00
2017-12-23T03:42:37.990Z,83.00
2017-12-23T03:45:06.158Z,82.70
2017-12-23T03:47:35.046Z,82.60
2017-12-23T03:50:03.150Z,82.60
2017-12-23T03:52:32.108Z,82.60
2017-12-23T03:55:00.993Z,82.40
2017-12-23T03:57:29.100Z,83.00
2017-12-23T03:59:58.008Z,82.40
2017-12-23T04:02:26.129Z,82.30
2017-12-23T04:04:54.347Z,82.40
2017-12-23T04:07:22.469Z,82.60
2017-12-23T04:09:50.645Z,82.70
2017-12-23T04:12:19.499Z,82.70
2017-12-23T04:14:48.423Z,82.60
2017-12-23T04:17:16.538Z,82.60
2017-12-23T04:19:44.675Z,82.70
2017-12-23T04:22:12.845Z,82.60
2017-12-23T04:24:41.013Z,82.40
2017-12-23T04:27:10.002Z,82.40
2017-12-23T04:29:38.910Z,82.30
2017-12-23T04:32:07.035Z,82.30
2017-12-23T04:34:35.956Z,82.30
2017-12-23T04:37:04.128Z,82.30
2017-12-23T04:39:33.029Z,82.20
2017-12-23T04:42:01.132Z,82.20
2017-12-23T04:44:29.268Z,82.20
2017-12-23T04:46:57.534Z,82.60
2017-12-23T04:49:26.427Z,82.60
2017-12-23T04:51:54.594Z,82.50
2017-12-23T04:54:23.484Z,82.60
2017-12-23T04:56:51.597Z,82.60
2017-12-23T04:59:19.829Z,82.60
2017-12-23T05:01:48.721Z,82.70
2017-12-23T05:04:16.837Z,82.70
2017-12-23T05:06:45.139Z,82.70
2017-12-23T05:09:13.339Z,82.80
2017-12-23T05:11:42.214Z,83.00
2017-12-23T05:14:10.338Z,83.00
2017-12-23T05:16:38.573Z,82.90
2017-12-23T05:19:07.462Z,82.90
2017-12-23T05:21:36.336Z,82.80
2017-12-23T05:24:04.525Z,82.90
2017-12-23T05:26:33.415Z,82.60
2017-12-23T05:29:01.586Z,82.60
2017-12-23T05:31:29.693Z,82.60
2017-12-23T05:33:57.818Z,83.00
2017-12-23T05:36:26.001Z,82.40
2017-12-23T05:38:54.865Z,82.60
2017-12-23T05:41:23.769Z,82.50
2017-12-23T05:43:51.953Z,82.50
2017-12-23T05:46:20.839Z,82.40
2017-12-23T05:48:49.014Z,82.40
2017-12-23T05:51:17.878Z,82.10
2017-12-23T05:53:46.792Z,82.10
2017-12-23T05:56:14.904Z,82.10
2017-12-23T05:58:43.041Z,82.10
2017-12-23T06:01:11.159Z,82.10
2017-12-23T06:03:39.315Z,82.00
2017-12-23T06:06:07.454Z,82.10
2017-12-23T06:08:35.579Z,81.80
2017-12-23T06:11:03.763Z,81.90
2017-12-23T06:13:32.668Z,81.90
2017-12-23T06:16:01.578Z,81.80
2017-12-23T06:18:29.692Z,81.80
2017-12-23T06:20:57.820Z,81.80
2017-12-23T06:23:25.994Z,81.70
2017-12-23T06:25:54.864Z,82.00
2017-12-23T06:28:23.023Z,82.00
2017-12-23T06:30:51.938Z,82.10
2017-12-23T06:33:20.125Z,82.10
2017-12-23T06:35:48.298Z,82.00
2017-12-23T06:38:16.469Z,82.00
2017-12-23T06:40:44.569Z,82.00
2017-12-23T06:43:12.716Z,82.10
2017-12-23T06:45:40.833Z,82.00
2017-12-23T06:48:09.059Z,82.00
2017-12-23T06:50:37.158Z,82.00
2017-12-23T06:53:05.301Z,81.80
2017-12-23T06:55:34.173Z,82.10
2017-12-23T06:58:02.306Z,82.10
2017-12-23T07:00:30.438Z,82.20
2017-12-23T07:02:58.555Z,82.10
2017-12-23T07:05:27.501Z,82.00
2017-12-23T07:07:56.389Z,82.10
2017-12-23T07:10:24.483Z,82.10
2017-12-23T07:12:53.457Z,82.40
2017-12-23T07:15:21.628Z,82.40
2017-12-23T07:17:49.795Z,82.30
2017-12-23T07:20:17.969Z,82.20
2017-12-23T07:22:46.869Z,82.20
2017-12-23T07:25:14.990Z,82.20
2017-12-23T07:27:43.206Z,82.10
2017-12-23T07:30:12.086Z,81.80
2017-12-23T07:32:40.266Z,81.80
2017-12-23T07:35:09.169Z,81.90
2017-12-23T07:37:37.346Z,81.80
2017-12-23T07:40:05.465Z,81.90
2017-12-23T07:42:33.590Z,81.90
2017-12-23T07:45:01.752Z,81.90
2017-12-23T07:47:29.930Z,81.90
2017-12-23T07:49:58.098Z,81.80
2017-12-23T07:52:26.993Z,81.70
2017-12-23T07:54:55.879Z,81.50
2017-12-23T07:57:24.159Z,81.50
2017-12-23T07:59:53.023Z,81.50
2017-12-23T08:02:21.913Z,81.60
2017-12-23T08:04:50.051Z,81.60
2017-12-23T08:07:18.284Z,81.60
2017-12-23T08:09:47.151Z,81.40
2017-12-23T08:12:15.380Z,81.40
2017-12-23T08:14:43.463Z,81.70
2017-12-23T08:17:11.690Z,81.70
2017-12-23T08:19:40.558Z,81.80
2017-12-23T08:22:09.430Z,81.60
2017-12-23T08:24:38.339Z,82.00
2017-12-23T08:27:07.252Z,81.30
2017-12-23T08:29:36.139Z,81.20
2017-12-23T08:32:04.252Z,81.20
2017-12-23T08:34:32.388Z,81.00
2017-12-23T08:37:00.559Z,81.10
2017-12-23T08:39:29.434Z,80.80
2017-12-23T08:41:57.622Z,80.80
2017-12-23T08:44:26.499Z,80.90
2017-12-23T08:46:55.381Z,80.70
2017-12-23T08:49:23.578Z,80.70
2017-12-23T08:51:51.747Z,80.40
2017-12-23T08:54:20.639Z,80.40
2017-12-23T08:56:48.754Z,80.40
2017-12-23T08:59:16.915Z,80.40
2017-12-23T09:01:45.048Z,80.10
2017-12-23T09:04:13.228Z,79.90
2017-12-23T09:06:42.106Z,79.50
2017-12-23T09:09:10.290Z,79.50
2017-12-23T09:11:39.167Z,79.50
2017-12-23T09:14:07.354Z,79.50
2017-12-23T09:16:36.245Z,79.80
2017-12-23T09:19:04.417Z,79.80
2017-12-23T09:21:33.408Z,79.60
2017-12-23T09:24:02.269Z,79.80
2017-12-23T09:26:31.188Z,79.90
2017-12-23T09:29:00.133Z,80.00
2017-12-23T09:31:28.195Z,80.10
2017-12-23T09:33:56.330Z,79.60
2017-12-23T09:36:24.496Z,79.80
2017-12-23T09:38:53.386Z,79.90
2017-12-23T09:41:21.559Z,79.80
2017-12-23T09:43:50.447Z,79.80
2017-12-23T09:46:19.342Z,79.30
2017-12-23T09:48:47.510Z,79.30
2017-12-23T09:51:15.682Z,79.70
2017-12-23T09:53:44.536Z,80.00
2017-12-23T09:56:13.422Z,79.60
2017-12-23T09:58:42.351Z,79.50
2017-12-23T10:01:11.348Z,79.50
2017-12-23T10:03:40.237Z,79.50
2017-12-23T10:06:08.412Z,79.50
2017-12-23T10:08:37.300Z,79.20
2017-12-23T10:11:05.419Z,79.10
2017-12-23T10:13:33.548Z,78.70
2017-12-23T10:16:01.716Z,79.20
2017-12-23T10:18:29.828Z,79.00
2017-12-23T10:20:58.062Z,78.80
2017-12-23T10:23:26.912Z,78.80
2017-12-23T10:25:55.797Z,78.70
2017-12-23T10:28:24.016Z,78.70
2017-12-23T10:30:52.903Z,78.30
2017-12-23T10:33:21.080Z,78.30
2017-12-23T10:35:49.930Z,78.30
2017-12-23T10:38:18.810Z,78.10
2017-12-23T10:40:47.039Z,78.00
2017-12-23T10:43:15.203Z,78.00
2017-12-23T10:45:44.072Z,78.10
2017-12-23T10:48:12.981Z,78.00
2017-12-23T10:50:41.978Z,78.10
2017-12-23T10:53:10.864Z,78.20
2017-12-23T10:55:39.750Z,77.60
2017-12-23T10:58:07.875Z,77.50
2017-12-23T11:00:36.011Z,77.40
2017-12-23T11:03:04.146Z,77.40
2017-12-23T11:05:33.057Z,77.50
2017-12-23T11:08:01.236Z,77.50
2017-12-23T11:10:29.326Z,77.20
2017-12-23T11:12:57.478Z,76.70
2017-12-23T11:15:26.373Z,77.10
2017-12-23T11:17:54.514Z,77.10
2017-12-23T11:20:22.624Z,77.10
2017-12-23T11:22:50.743Z,77.50
2017-12-23T11:25:19.636Z,77.90
2017-12-23T11:27:48.626Z,77.10
2017-12-23T11:30:16.758Z,77.00
2017-12-23T11:32:44.889Z,77.40
2017-12-23T11:35:13.800Z,76.30
2017-12-23T11:37:42.689Z,76.70
2017-12-23T11:40:11.563Z,76.30
2017-12-23T11:42:39.703Z,76.30
2017-12-23T11:45:07.842Z,76.50
2017-12-23T11:47:36.004Z,76.10
2017-12-23T11:50:04.210Z,75.80
2017-12-23T11:52:32.445Z,75.80
2017-12-23T11:55:01.296Z,76.10
2017-12-23T11:57:30.185Z,75.70
2017-12-23T11:59:58.397Z,75.00
2017-12-23T12:02:27.286Z,74.40
2017-12-23T12:04:55.397Z,74.40
2017-12-23T12:07:23.512Z,73.40
2017-12-23T12:09:52.402Z,73.00
2017-12-23T12:12:21.415Z,72.40
2017-12-23T12:14:50.301Z,72.30
2017-12-23T12:17:19.191Z,72.10
2017-12-23T12:19:48.081Z,71.90
2017-12-23T12:22:16.971Z,72.20
2017-12-23T12:24:46.068Z,72.90
2017-12-23T12:27:14.240Z,72.80
2017-12-23T12:29:42.411Z,72.50
2017-12-23T12:32:10.584Z,73.00
2017-12-23T12:34:39.578Z,72.60
2017-12-23T12:37:08.436Z,72.70
2017-12-23T12:39:36.551Z,72.70
2017-12-23T12:42:04.710Z,72.90
2017-12-23T12:44:33.703Z,72.10
2017-12-23T12:47:03.206Z,72.20
2017-12-23T12:49:31.386Z,72.20
2017-12-23T12:51:59.859Z,71.10
2017-12-23T12:54:28.047Z,70.80
2017-12-23T12:56:56.208Z,70.20
2017-12-23T12:59:24.318Z,69.90
2017-12-23T13:01:52.610Z,69.30
2017-12-23T13:04:20.728Z,69.40
2017-12-23T13:06:48.833Z,67.90
2017-12-23T13:09:16.966Z,67.30
2017-12-23T13:11:45.118Z,67.20
2017-12-23T13:14:13.991Z,67.10
2017-12-23T13:16:42.203Z,67.10
2017-12-23T13:19:11.071Z,67.70
2017-12-23T13:21:40.046Z,67.90
2017-12-23T13:24:08.939Z,68.20
2017-12-23T13:26:37.863Z,67.80
2017-12-23T13:29:06.855Z,67.70
2017-12-23T13:31:35.738Z,66.80
2017-12-23T13:34:03.922Z,66.70
2017-12-23T13:36:32.012Z,64.70
2017-12-23T13:39:00.163Z,64.30
2017-12-23T13:41:28.271Z,64.00
2017-12-23T13:43:56.505Z,66.10
2017-12-23T13:46:25.397Z,67.80
2017-12-23T13:48:54.274Z,68.30
2017-12-23T13:51:22.398Z,68.30
2017-12-23T13:53:50.533Z,69.20
2017-12-23T13:56:19.424Z,70.00
2017-12-23T13:58:47.594Z,69.90
2017-12-23T14:01:16.484Z,70.90
2017-12-23T14:03:44.594Z,70.90
2017-12-23T14:06:12.722Z,71.00
2017-12-23T14:08:40.899Z,71.00
2017-12-23T14:11:09.747Z,71.60
2017-12-23T14:13:38.678Z,71.80
2017-12-23T14:16:06.852Z,71.60
2017-12-23T14:18:35.721Z,72.80
2017-12-23T14:21:04.631Z,72.30
2017-12-23T14:23:32.805Z,72.20
2017-12-23T14:26:01.795Z,72.90
2017-12-23T14:28:30.688Z,73.00
2017-12-23T14:30:58.792Z,73.00
2017-12-23T14:33:26.932Z,73.00
2017-12-23T14:35:55.106Z,73.20
2017-12-23T14:38:23.996Z,72.70
2017-12-23T14:40:52.857Z,72.70
2017-12-23T14:43:21.776Z,73.00
2017-12-23T14:45:49.946Z,73.00
2017-12-23T14:48:18.941Z,72.80
2017-12-23T14:50:47.861Z,72.50
2017-12-23T14:53:16.107Z,72.50
2017-12-23T14:55:44.999Z,72.60
2017-12-23T14:58:13.248Z,72.70
2017-12-23T15:00:41.283Z,72.50
2017-12-23T15:03:09.518Z,72.70
2017-12-23T15:05:37.687Z,72.40
2017-12-23T15:08:06.586Z,72.20
2017-12-23T15:10:34.753Z,72.20
2017-12-23T15:13:03.740Z,71.90
2017-12-23T15:15:32.025Z,71.90
2017-12-23T15:18:00.118Z,72.20
2017-12-23T15:20:28.260Z,72.10
2017-12-23T15:22:56.383Z,72.00
2017-12-23T15:25:24.610Z,72.40
2017-12-23T15:27:52.790Z,72.50
2017-12-23T15:30:20.952Z,72.50
2017-12-23T15:32:49.934Z,73.10
2017-12-23T15:35:18.092Z,73.10
2017-12-23T15:37:47.003Z,73.30
2017-12-23T15:40:15.887Z,73.20
2017-12-23T15:42:44.013Z,73.20
2017-12-23T15:45:12.118Z,73.20
2017-12-23T15:47:41.024Z,73.50
2017-12-23T15:50:09.204Z,73.50
2017-12-23T15:52:37.378Z,73.40
2017-12-23T15:55:05.550Z,73.40
2017-12-23T15:57:33.722Z,73.50
2017-12-23T16:00:02.614Z,73.70
2017-12-23T16:02:30.759Z,73.70
2017-12-23T16:04:59.674Z,73.80
2017-12-23T16:07:28.564Z,74.00
2017-12-23T16:09:57.429Z,74.00
2017-12-23T16:12:25.628Z,74.00
2017-12-23T16:14:53.744Z,74.00
2017-12-23T16:17:21.971Z,74.00
2017-12-23T16:19:50.963Z,74.10
2017-12-23T16:22:19.135Z,74.90
2017-12-23T16:24:48.017Z,74.30
2017-12-23T16:27:16.299Z,74.30
2017-12-23T16:29:44.550Z,74.20
2017-12-23T16:32:13.468Z,74.30
2017-12-23T16:34:41.581Z,74.30
2017-12-23T16:37:09.715Z,74.50
2017-12-23T16:39:37.956Z,74.60
2017-12-23T16:42:06.845Z,75.40
2017-12-23T16:44:35.720Z,74.90
2017-12-23T16:47:03.875Z,74.90
2017-12-23T16:49:32.006Z,74.90
2017-12-23T16:52:00.109Z,75.50
2017-12-23T16:54:28.263Z,75.30
2017-12-23T16:56:56.388Z,75.30
2017-12-23T16:59:24.598Z,75.20
2017-12-23T17:01:53.489Z,75.40
2017-12-23T17:04:22.382Z,75.40
2017-12-23T17:06:50.551Z,75.40
2017-12-23T17:09:19.434Z,75.60
2017-12-23T17:11:47.615Z,75.60
2017-12-23T17:14:16.506Z,75.60
2017-12-23T17:16:44.678Z,75.40
2017-12-23T17:19:13.621Z,75.40
2017-12-23T17:21:41.833Z,75.40
2017-12-23T17:24:09.965Z,75.50
2017-12-23T17:26:38.194Z,75.60
2017-12-23T17:29:19.062Z,75.60
2017-12-23T17:31:47.196Z,75.60
2017-12-23T17:34:15.408Z,75.50
2017-12-23T17:36:44.401Z,75.80
2017-12-23T17:39:13.331Z,75.70
2017-12-23T17:41:42.991Z,75.80
2017-12-23T17:44:11.998Z,75.80
2017-12-23T17:46:40.165Z,75.80
2017-12-23T17:49:09.054Z,75.90
2017-12-23T17:51:37.214Z,75.90
2017-12-23T17:54:05.355Z,76.00
2017-12-23T17:56:34.274Z,76.40
2017-12-23T17:59:02.465Z,75.90
2017-12-23T18:01:30.584Z,75.90
2017-12-23T18:03:58.723Z,76.00
2017-12-23T18:06:26.824Z,75.90
2017-12-23T18:08:55.066Z,75.90
2017-12-23T18:11:23.224Z,75.70
2017-12-23T18:13:53.350Z,75.80
2017-12-23T18:16:21.453Z,75.70
2017-12-23T18:18:49.839Z,76.00
2017-12-23T18:21:18.883Z,76.10
2017-12-23T18:23:47.269Z,76.00
2017-12-23T18:26:16.171Z,76.00
2017-12-23T18:28:44.274Z,76.00
2017-12-23T18:31:12.611Z,76.30
2017-12-23T18:33:40.871Z,76.20
2017-12-23T18:36:09.007Z,76.30
2017-12-23T18:38:37.139Z,76.30
2017-12-23T18:41:05.298Z,76.30
2017-12-23T18:43:34.192Z,76.20
2017-12-23T18:46:03.287Z,76.20
2017-12-23T18:48:31.650Z,76.10
2017-12-23T18:50:59.789Z,76.40
2017-12-23T18:53:27.921Z,76.30
2017-12-23T18:55:56.036Z,76.30
2017-12-23T18:58:24.970Z,76.00
2017-12-23T19:00:53.837Z,76.20
2017-12-23T19:03:22.960Z,76.00
2017-12-23T19:05:51.440Z,75.90
2017-12-23T19:08:19.573Z,76.00
2017-12-23T19:10:48.508Z,76.10
2017-12-23T19:13:17.119Z,76.10
2017-12-23T19:15:51.024Z,76.00
2017-12-23T19:18:20.798Z,76.00
2017-12-23T19:20:48.900Z,75.90
2017-12-23T19:23:17.346Z,76.00
2017-12-23T19:25:46.447Z,75.90
2017-12-23T19:28:14.615Z,75.90
2017-12-23T19:30:43.503Z,75.70
2017-12-23T19:33:11.629Z,75.70
2017-12-23T19:35:39.850Z,75.60
2017-12-23T19:38:08.740Z,75.80
2017-12-23T19:40:37.152Z,75.80
2017-12-23T19:43:05.292Z,75.60
2017-12-23T19:45:33.463Z,75.60
2017-12-23T19:48:01.597Z,75.30
2017-12-23T19:50:30.023Z,75.60
2017-12-23T19:52:58.698Z,75.70
2017-12-23T19:55:27.898Z,75.70
2017-12-23T19:57:56.330Z,75.70
2017-12-23T20:00:25.024Z,75.60
2017-12-23T20:02:54.365Z,76.10
2017-12-23T20:05:22.536Z,76.00
2017-12-23T20:07:51.421Z,76.60
2017-12-23T20:10:20.353Z,76.70
2017-12-23T20:12:48.589Z,76.70
2017-12-23T20:15:17.482Z,76.30
2017-12-23T20:17:45.625Z,76.40
2017-12-23T20:20:14.530Z,76.30
2017-12-23T20:22:42.719Z,76.20
2017-12-23T20:25:11.580Z,75.80
2017-12-23T20:27:40.492Z,75.40
2017-12-23T20:30:08.670Z,75.40
2017-12-23T20:32:37.547Z,75.50
2017-12-23T20:35:05.734Z,75.50
2017-12-23T20:37:33.903Z,75.70
2017-12-23T20:40:02.786Z,75.70
2017-12-23T20:42:30.965Z,75.70
2017-12-23T20:44:59.857Z,75.50
2017-12-23T20:47:28.029Z,75.50
2017-12-23T20:49:56.202Z,75.40
2017-12-23T20:52:25.092Z,75.20
2017-12-23T20:54:53.969Z,75.40
2017-12-23T20:57:22.163Z,75.40
2017-12-23T20:59:50.430Z,75.30
2017-12-23T21:02:19.298Z,75.20
2017-12-23T21:04:47.459Z,75.20
2017-12-23T21:07:16.384Z,75.30
2017-12-23T21:09:45.273Z,75.60
2017-12-23T21:12:14.281Z,75.60
2017-12-23T21:14:42.470Z,75.60
2017-12-23T21:17:10.711Z,75.50
2017-12-23T21:19:39.602Z,75.60
2017-12-23T21:22:07.760Z,75.60
2017-12-23T21:24:36.663Z,75.30
2017-12-23T21:27:04.840Z,75.30
2017-12-23T21:29:32.992Z,75.10
2017-12-23T21:32:01.134Z,75.40
2017-12-23T21:34:29.251Z,75.20
2017-12-23T21:36:57.438Z,75.20
2017-12-23T21:39:25.566Z,75.20
2017-12-23T21:41:53.774Z,75.30
2017-12-23T21:44:23.003Z,75.20
2017-12-23T21:46:51.147Z,75.20
2017-12-23T21:49:19.257Z,74.90
2017-12-23T21:51:48.889Z,75.00
2017-12-23T21:54:18.737Z,75.30
2017-12-23T21:56:47.635Z,75.60
2017-12-23T21:59:15.803Z,75.60
2017-12-23T22:01:43.912Z,75.40
2017-12-23T22:04:13.541Z,75.30
2017-12-23T22:06:42.544Z,75.40
2017-12-23T22:09:11.425Z,75.60
2017-12-23T22:11:40.346Z,75.60
2017-12-23T22:14:08.463Z,75.60
2017-12-23T22:16:36.696Z,75.50
2017-12-23T22:19:05.560Z,75.30
2017-12-23T22:21:34.476Z,75.40
2017-12-23T22:24:02.595Z,75.30
2017-12-23T22:26:30.823Z,75.50
2017-12-23T22:28:59.715Z,75.40
2017-12-23T22:31:27.887Z,75.40
2017-12-23T22:33:56.800Z,75.20
2017-12-23T22:36:24.946Z,75.30
2017-12-23T22:38:53.835Z,75.00
2017-12-23T22:41:22.720Z,75.10
2017-12-23T22:43:51.003Z,75.10
2017-12-23T22:46:19.995Z,75.00
2017-12-23T22:48:48.986Z,74.90
2017-12-23T22:51:17.142Z,74.90
2017-12-23T22:53:45.340Z,75.00
2017-12-23T22:56:14.438Z,75.10
2017-12-23T22:58:42.538Z,75.20
2017-12-23T23:01:10.673Z,75.00
2017-12-23T23:03:38.848Z,75.00
2017-12-23T23:06:07.738Z,74.80
2017-12-23T23:08:36.625Z,75.00
2017-12-23T23:11:05.476Z,75.00
2017-12-23T23:13:34.386Z,75.30
2017-12-23T23:16:02.590Z,75.30
2017-12-23T23:18:30.753Z,75.40
2017-12-23T23:20:59.700Z,75.30
2017-12-23T23:23:27.816Z,75.20
2017-12-23T23:25:55.987Z,75.30
2017-12-23T23:28:24.876Z,75.50
2017-12-23T23:30:53.156Z,75.50
2017-12-23T23:33:21.313Z,75.30
2017-12-23T23:35:49.496Z,75.40
2017-12-23T23:38:18.388Z,75.70
2017-12-23T23:40:46.559Z,75.70
2017-12-23T23:43:15.426Z,75.80
2017-12-23T23:45:44.344Z,75.30
2017-12-23T23:48:12.866Z,75.30
2017-12-23T23:50:41.367Z,75.30
2017-12-23T23:53:10.292Z,75.00
2017-12-23T23:55:39.260Z,75.10
2017-12-23T23:58:08.160Z,75.20
